sensor_id;sensor_type;location;lat;lon;timestamp;temperature;humidity
23124;DHT22;11731;48.592;8.858;2022-12-07T00:01:38;7.70;99.90
23124;DHT22;11731;48.592;8.858;2022-12-07T00:04:06;7.80;99.90
23124;DHT22;11731;48.592;8.858;2022-12-07T00:06:38;7.60;99.90
23124;DHT22;11731;48.592;8.858;2022-12-07T00:09:20;7.30;99.90
23124;DHT22;11731;48.592;8.858;2022-12-07T00:11:49;7.40;99.90
23124;DHT22;11731;48.592;8.858;2022-12-07T00:14:24;7.40;99.90
23124;DHT22;11731;48.592;8.858;2022-12-07T00:16:52;7.50;99.90
23124;DHT22;11731;48.592;8.858;2022-12-07T00:19:19;7.70;99.90
23124;DHT22;11731;48.592;8.858;2022-12-07T00:21:47;7.50;99.90
23124;DHT22;11731;48.592;8.858;2022-12-07T00:24:14;7.40;99.90
23124;DHT22;11731;48.592;8.858;2022-12-07T00:26:55;7.60;99.90
23124;DHT22;11731;48.592;8.858;2022-12-07T00:29:30;7.80;99.90
23124;DHT22;11731;48.592;8.858;2022-12-07T00:32:21;7.70;99.90
23124;DHT22;11731;48.592;8.858;2022-12-07T00:34:48;7.80;99.90
23124;DHT22;11731;48.592;8.858;2022-12-07T00:37:16;7.80;99.90
23124;DHT22;11731;48.592;8.858;2022-12-07T00:39:43;7.50;99.90
23124;DHT22;11731;48.592;8.858;2022-12-07T00:42:12;7.60;99.90
23124;DHT22;11731;48.592;8.858;2022-12-07T00:47:50;7.80;99.90
23124;DHT22;11731;48.592;8.858;2022-12-07T00:50:08;8.00;99.90
23124;DHT22;11731;48.592;8.858;2022-12-07T00:52:36;8.00;99.90
23124;DHT22;11731;48.592;8.858;2022-12-07T00:55:04;8.00;99.90
23124;DHT22;11731;48.592;8.858;2022-12-07T00:57:31;8.10;99.90
23124;DHT22;11731;48.592;8.858;2022-12-07T00:59:58;8.20;99.90
23124;DHT22;11731;48.592;8.858;2022-12-07T01:02:26;8.30;99.90
23124;DHT22;11731;48.592;8.858;2022-12-07T01:04:52;8.10;99.90
23124;DHT22;11731;48.592;8.858;2022-12-07T01:07:19;7.80;99.90
23124;DHT22;11731;48.592;8.858;2022-12-07T01:09:54;7.80;99.90
23124;DHT22;11731;48.592;8.858;2022-12-07T01:12:21;8.00;99.90
23124;DHT22;11731;48.592;8.858;2022-12-07T01:14:48;8.10;99.90
23124;DHT22;11731;48.592;8.858;2022-12-07T01:17:14;8.00;99.90
23124;DHT22;11731;48.592;8.858;2022-12-07T01:19:45;8.00;99.90
23124;DHT22;11731;48.592;8.858;2022-12-07T01:22:13;7.90;99.90
23124;DHT22;11731;48.592;8.858;2022-12-07T01:24:39;7.60;99.90
23124;DHT22;11731;48.592;8.858;2022-12-07T01:27:08;7.70;99.90
23124;DHT22;11731;48.592;8.858;2022-12-07T01:29:35;7.80;99.90
23124;DHT22;11731;48.592;8.858;2022-12-07T01:32:02;7.80;99.90
23124;DHT22;11731;48.592;8.858;2022-12-07T01:34:29;7.50;99.90
23124;DHT22;11731;48.592;8.858;2022-12-07T01:36:55;7.40;99.90
23124;DHT22;11731;48.592;8.858;2022-12-07T01:39:23;7.50;99.90
23124;DHT22;11731;48.592;8.858;2022-12-07T01:41:50;7.70;99.90
23124;DHT22;11731;48.592;8.858;2022-12-07T01:44:21;7.90;99.90
23124;DHT22;11731;48.592;8.858;2022-12-07T01:46:49;7.90;99.90
23124;DHT22;11731;48.592;8.858;2022-12-07T01:49:21;7.80;99.90
23124;DHT22;11731;48.592;8.858;2022-12-07T01:51:50;7.80;99.90
23124;DHT22;11731;48.592;8.858;2022-12-07T01:54:20;7.80;99.90
23124;DHT22;11731;48.592;8.858;2022-12-07T01:56:50;7.80;99.90
23124;DHT22;11731;48.592;8.858;2022-12-07T01:59:22;7.70;99.90
23124;DHT22;11731;48.592;8.858;2022-12-07T02:01:50;7.60;99.90
23124;DHT22;11731;48.592;8.858;2022-12-07T02:04:18;7.60;99.90
23124;DHT22;11731;48.592;8.858;2022-12-07T02:06:45;7.70;99.90
23124;DHT22;11731;48.592;8.858;2022-12-07T02:09:13;7.70;99.90
23124;DHT22;11731;48.592;8.858;2022-12-07T02:11:40;7.10;99.90
23124;DHT22;11731;48.592;8.858;2022-12-07T02:14:08;6.50;99.90
23124;DHT22;11731;48.592;8.858;2022-12-07T02:16:42;6.00;99.90
23124;DHT22;11731;48.592;8.858;2022-12-07T02:19:29;5.60;99.90
23124;DHT22;11731;48.592;8.858;2022-12-07T02:22:18;5.40;99.90
23124;DHT22;11731;48.592;8.858;2022-12-07T02:24:54;5.60;99.90
23124;DHT22;11731;48.592;8.858;2022-12-07T02:27:44;5.70;99.90
23124;DHT22;11731;48.592;8.858;2022-12-07T02:30:14;5.80;99.90
23124;DHT22;11731;48.592;8.858;2022-12-07T02:32:46;6.00;99.90
23124;DHT22;11731;48.592;8.858;2022-12-07T02:35:19;6.30;99.90
23124;DHT22;11731;48.592;8.858;2022-12-07T02:37:53;6.50;99.90
23124;DHT22;11731;48.592;8.858;2022-12-07T02:40:29;6.60;99.90
23124;DHT22;11731;48.592;8.858;2022-12-07T02:43:02;6.60;99.90
23124;DHT22;11731;48.592;8.858;2022-12-07T02:45:31;6.60;99.90
23124;DHT22;11731;48.592;8.858;2022-12-07T02:48:00;6.30;99.90
23124;DHT22;11731;48.592;8.858;2022-12-07T02:50:28;6.10;99.90
23124;DHT22;11731;48.592;8.858;2022-12-07T02:53:02;6.20;99.90
23124;DHT22;11731;48.592;8.858;2022-12-07T02:55:39;6.50;99.90
23124;DHT22;11731;48.592;8.858;2022-12-07T02:58:20;6.40;99.90
23124;DHT22;11731;48.592;8.858;2022-12-07T03:00:58;6.50;99.90
23124;DHT22;11731;48.592;8.858;2022-12-07T03:03:28;6.60;99.90
23124;DHT22;11731;48.592;8.858;2022-12-07T03:06:12;6.80;99.90
23124;DHT22;11731;48.592;8.858;2022-12-07T03:08:50;6.60;99.90
23124;DHT22;11731;48.592;8.858;2022-12-07T03:11:24;6.50;99.90
23124;DHT22;11731;48.592;8.858;2022-12-07T03:13:58;6.50;99.90
23124;DHT22;11731;48.592;8.858;2022-12-07T03:17:12;6.40;99.90
23124;DHT22;11731;48.592;8.858;2022-12-07T03:19:27;6.70;99.90
23124;DHT22;11731;48.592;8.858;2022-12-07T03:22:07;6.80;99.90
23124;DHT22;11731;48.592;8.858;2022-12-07T03:24:37;6.70;99.90
23124;DHT22;11731;48.592;8.858;2022-12-07T03:27:08;6.60;99.90
23124;DHT22;11731;48.592;8.858;2022-12-07T03:32:43;6.80;99.90
23124;DHT22;11731;48.592;8.858;2022-12-07T03:35:14;6.70;99.90
23124;DHT22;11731;48.592;8.858;2022-12-07T03:37:49;6.70;99.90
23124;DHT22;11731;48.592;8.858;2022-12-07T03:40:28;6.40;99.90
23124;DHT22;11731;48.592;8.858;2022-12-07T03:43:13;6.50;99.90
23124;DHT22;11731;48.592;8.858;2022-12-07T03:45:53;6.70;99.90
23124;DHT22;11731;48.592;8.858;2022-12-07T03:48:25;6.50;99.90
23124;DHT22;11731;48.592;8.858;2022-12-07T03:51:00;6.10;99.90
23124;DHT22;11731;48.592;8.858;2022-12-07T03:53:34;6.10;99.90
23124;DHT22;11731;48.592;8.858;2022-12-07T03:56:17;6.00;99.90
23124;DHT22;11731;48.592;8.858;2022-12-07T03:58:44;6.20;99.90
23124;DHT22;11731;48.592;8.858;2022-12-07T04:01:11;6.30;99.90
23124;DHT22;11731;48.592;8.858;2022-12-07T04:03:40;6.20;99.90
23124;DHT22;11731;48.592;8.858;2022-12-07T04:06:07;6.20;99.90
23124;DHT22;11731;48.592;8.858;2022-12-07T04:08:34;6.20;99.90
23124;DHT22;11731;48.592;8.858;2022-12-07T04:11:01;6.30;99.90
23124;DHT22;11731;48.592;8.858;2022-12-07T04:13:28;6.50;99.90
23124;DHT22;11731;48.592;8.858;2022-12-07T04:15:55;6.60;99.90
23124;DHT22;11731;48.592;8.858;2022-12-07T04:18:22;6.40;99.90
23124;DHT22;11731;48.592;8.858;2022-12-07T04:20:50;6.20;99.90
23124;DHT22;11731;48.592;8.858;2022-12-07T04:23:26;6.20;99.90
23124;DHT22;11731;48.592;8.858;2022-12-07T04:25:53;6.40;99.90
23124;DHT22;11731;48.592;8.858;2022-12-07T04:28:20;6.50;99.90
23124;DHT22;11731;48.592;8.858;2022-12-07T04:30:47;6.60;99.90
23124;DHT22;11731;48.592;8.858;2022-12-07T04:33:14;6.80;99.90
23124;DHT22;11731;48.592;8.858;2022-12-07T04:35:42;6.80;99.90
23124;DHT22;11731;48.592;8.858;2022-12-07T04:38:27;6.90;99.90
23124;DHT22;11731;48.592;8.858;2022-12-07T04:40:54;6.70;99.90
23124;DHT22;11731;48.592;8.858;2022-12-07T04:43:21;6.60;99.90
23124;DHT22;11731;48.592;8.858;2022-12-07T04:45:48;6.30;99.90
23124;DHT22;11731;48.592;8.858;2022-12-07T04:48:22;6.40;99.90
23124;DHT22;11731;48.592;8.858;2022-12-07T04:50:49;6.50;99.90
23124;DHT22;11731;48.592;8.858;2022-12-07T04:53:39;6.50;99.90
23124;DHT22;11731;48.592;8.858;2022-12-07T04:56:06;6.20;99.90
23124;DHT22;11731;48.592;8.858;2022-12-07T04:58:33;6.40;99.90
23124;DHT22;11731;48.592;8.858;2022-12-07T05:01:00;6.40;99.90
23124;DHT22;11731;48.592;8.858;2022-12-07T05:04:44;6.30;99.90
23124;DHT22;11731;48.592;8.858;2022-12-07T05:06:43;6.40;99.90
23124;DHT22;11731;48.592;8.858;2022-12-07T05:09:11;6.30;99.90
23124;DHT22;11731;48.592;8.858;2022-12-07T05:11:38;6.20;99.90
23124;DHT22;11731;48.592;8.858;2022-12-07T05:14:08;6.00;99.90
23124;DHT22;11731;48.592;8.858;2022-12-07T05:16:36;5.90;99.90
23124;DHT22;11731;48.592;8.858;2022-12-07T05:19:03;5.60;99.90
23124;DHT22;11731;48.592;8.858;2022-12-07T05:21:39;5.50;99.90
23124;DHT22;11731;48.592;8.858;2022-12-07T05:24:21;5.20;99.90
23124;DHT22;11731;48.592;8.858;2022-12-07T05:26:48;5.00;99.90
23124;DHT22;11731;48.592;8.858;2022-12-07T05:29:17;5.00;99.90
23124;DHT22;11731;48.592;8.858;2022-12-07T05:31:44;5.00;99.90
23124;DHT22;11731;48.592;8.858;2022-12-07T05:34:11;5.10;99.90
23124;DHT22;11731;48.592;8.858;2022-12-07T05:36:40;5.00;99.90
23124;DHT22;11731;48.592;8.858;2022-12-07T05:39:07;5.10;99.90
23124;DHT22;11731;48.592;8.858;2022-12-07T05:41:35;5.10;99.90
23124;DHT22;11731;48.592;8.858;2022-12-07T05:44:20;5.10;99.90
23124;DHT22;11731;48.592;8.858;2022-12-07T05:46:47;5.00;99.90
23124;DHT22;11731;48.592;8.858;2022-12-07T05:49:13;4.80;99.90
23124;DHT22;11731;48.592;8.858;2022-12-07T05:51:40;4.50;99.90
23124;DHT22;11731;48.592;8.858;2022-12-07T05:54:07;4.30;99.90
23124;DHT22;11731;48.592;8.858;2022-12-07T05:56:36;4.40;99.90
23124;DHT22;11731;48.592;8.858;2022-12-07T05:59:02;4.50;99.90
23124;DHT22;11731;48.592;8.858;2022-12-07T06:01:47;4.70;99.90
23124;DHT22;11731;48.592;8.858;2022-12-07T06:04:17;4.90;99.90
23124;DHT22;11731;48.592;8.858;2022-12-07T06:06:54;5.00;99.90
23124;DHT22;11731;48.592;8.858;2022-12-07T06:09:23;5.10;99.90
23124;DHT22;11731;48.592;8.858;2022-12-07T06:12:21;4.80;99.90
23124;DHT22;11731;48.592;8.858;2022-12-07T06:14:57;4.60;99.90
23124;DHT22;11731;48.592;8.858;2022-12-07T06:17:32;4.70;99.90
23124;DHT22;11731;48.592;8.858;2022-12-07T06:20:18;5.00;99.90
23124;DHT22;11731;48.592;8.858;2022-12-07T06:22:46;5.10;99.90
23124;DHT22;11731;48.592;8.858;2022-12-07T06:25:12;5.20;99.90
23124;DHT22;11731;48.592;8.858;2022-12-07T06:27:41;5.30;99.90
23124;DHT22;11731;48.592;8.858;2022-12-07T06:30:08;5.30;99.90
23124;DHT22;11731;48.592;8.858;2022-12-07T06:32:37;5.30;99.90
23124;DHT22;11731;48.592;8.858;2022-12-07T06:35:25;5.50;99.90
23124;DHT22;11731;48.592;8.858;2022-12-07T06:37:52;5.50;99.90
23124;DHT22;11731;48.592;8.858;2022-12-07T06:40:19;5.50;99.90
23124;DHT22;11731;48.592;8.858;2022-12-07T06:42:58;5.60;99.90
23124;DHT22;11731;48.592;8.858;2022-12-07T06:45:28;5.60;99.90
23124;DHT22;11731;48.592;8.858;2022-12-07T06:47:55;5.50;99.90
23124;DHT22;11731;48.592;8.858;2022-12-07T06:50:22;5.60;99.90
23124;DHT22;11731;48.592;8.858;2022-12-07T06:52:49;5.60;99.90
23124;DHT22;11731;48.592;8.858;2022-12-07T06:55:17;5.70;99.90
23124;DHT22;11731;48.592;8.858;2022-12-07T06:57:44;5.80;99.90
23124;DHT22;11731;48.592;8.858;2022-12-07T07:00:14;5.70;99.90
23124;DHT22;11731;48.592;8.858;2022-12-07T07:02:41;5.60;99.90
23124;DHT22;11731;48.592;8.858;2022-12-07T07:05:08;5.40;99.90
23124;DHT22;11731;48.592;8.858;2022-12-07T07:07:35;5.10;99.90
23124;DHT22;11731;48.592;8.858;2022-12-07T07:10:02;5.20;99.90
23124;DHT22;11731;48.592;8.858;2022-12-07T07:12:29;5.30;99.90
23124;DHT22;11731;48.592;8.858;2022-12-07T07:14:56;5.40;99.90
23124;DHT22;11731;48.592;8.858;2022-12-07T07:17:24;5.40;99.90
23124;DHT22;11731;48.592;8.858;2022-12-07T07:19:51;5.50;99.90
23124;DHT22;11731;48.592;8.858;2022-12-07T07:22:18;5.50;99.90
23124;DHT22;11731;48.592;8.858;2022-12-07T07:24:45;5.30;99.90
23124;DHT22;11731;48.592;8.858;2022-12-07T07:27:12;5.40;99.90
23124;DHT22;11731;48.592;8.858;2022-12-07T07:29:39;5.40;99.90
23124;DHT22;11731;48.592;8.858;2022-12-07T07:32:06;5.50;99.90
23124;DHT22;11731;48.592;8.858;2022-12-07T07:34:34;5.20;99.90
23124;DHT22;11731;48.592;8.858;2022-12-07T07:37:01;5.20;99.90
23124;DHT22;11731;48.592;8.858;2022-12-07T07:39:28;5.10;99.90
23124;DHT22;11731;48.592;8.858;2022-12-07T07:41:55;5.20;99.90
23124;DHT22;11731;48.592;8.858;2022-12-07T07:44:22;5.30;99.90
23124;DHT22;11731;48.592;8.858;2022-12-07T07:46:49;5.40;99.90
23124;DHT22;11731;48.592;8.858;2022-12-07T07:49:16;5.50;99.90
23124;DHT22;11731;48.592;8.858;2022-12-07T07:51:44;5.40;99.90
23124;DHT22;11731;48.592;8.858;2022-12-07T07:54:11;5.40;99.90
23124;DHT22;11731;48.592;8.858;2022-12-07T07:56:38;5.60;99.90
23124;DHT22;11731;48.592;8.858;2022-12-07T07:59:05;5.90;99.90
23124;DHT22;11731;48.592;8.858;2022-12-07T08:01:48;5.90;99.90
23124;DHT22;11731;48.592;8.858;2022-12-07T08:04:15;5.60;99.90
23124;DHT22;11731;48.592;8.858;2022-12-07T08:06:42;5.90;99.90
23124;DHT22;11731;48.592;8.858;2022-12-07T08:09:10;5.90;99.90
23124;DHT22;11731;48.592;8.858;2022-12-07T08:11:37;6.10;99.90
23124;DHT22;11731;48.592;8.858;2022-12-07T08:14:04;6.20;99.90
23124;DHT22;11731;48.592;8.858;2022-12-07T08:16:30;5.80;99.90
23124;DHT22;11731;48.592;8.858;2022-12-07T08:18:57;5.80;99.90
23124;DHT22;11731;48.592;8.858;2022-12-07T08:21:24;5.50;99.90
23124;DHT22;11731;48.592;8.858;2022-12-07T08:23:51;5.50;99.90
23124;DHT22;11731;48.592;8.858;2022-12-07T08:26:19;5.60;99.90
23124;DHT22;11731;48.592;8.858;2022-12-07T08:28:46;5.80;99.90
23124;DHT22;11731;48.592;8.858;2022-12-07T08:31:15;5.70;99.90
23124;DHT22;11731;48.592;8.858;2022-12-07T08:33:44;5.70;99.90
23124;DHT22;11731;48.592;8.858;2022-12-07T08:36:14;5.90;99.90
23124;DHT22;11731;48.592;8.858;2022-12-07T08:38:41;5.70;99.90
23124;DHT22;11731;48.592;8.858;2022-12-07T08:41:08;5.20;99.90
23124;DHT22;11731;48.592;8.858;2022-12-07T08:43:37;5.20;99.90
23124;DHT22;11731;48.592;8.858;2022-12-07T08:46:19;5.70;99.90
23124;DHT22;11731;48.592;8.858;2022-12-07T08:48:51;6.20;99.90
23124;DHT22;11731;48.592;8.858;2022-12-07T08:51:20;6.50;99.90
23124;DHT22;11731;48.592;8.858;2022-12-07T08:53:48;6.80;99.90
23124;DHT22;11731;48.592;8.858;2022-12-07T08:56:15;6.70;99.90
23124;DHT22;11731;48.592;8.858;2022-12-07T08:58:58;6.70;99.90
23124;DHT22;11731;48.592;8.858;2022-12-07T09:01:31;6.60;99.90
23124;DHT22;11731;48.592;8.858;2022-12-07T09:03:58;6.90;99.90
23124;DHT22;11731;48.592;8.858;2022-12-07T09:06:25;7.00;99.90
23124;DHT22;11731;48.592;8.858;2022-12-07T09:08:55;7.00;99.90
23124;DHT22;11731;48.592;8.858;2022-12-07T09:11:23;7.40;99.90
23124;DHT22;11731;48.592;8.858;2022-12-07T09:13:52;7.20;99.90
23124;DHT22;11731;48.592;8.858;2022-12-07T09:16:21;7.10;99.90
23124;DHT22;11731;48.592;8.858;2022-12-07T09:18:48;7.10;99.90
23124;DHT22;11731;48.592;8.858;2022-12-07T09:21:14;7.20;99.90
23124;DHT22;11731;48.592;8.858;2022-12-07T09:23:42;7.00;99.90
23124;DHT22;11731;48.592;8.858;2022-12-07T09:26:09;7.10;99.90
23124;DHT22;11731;48.592;8.858;2022-12-07T09:28:36;7.40;99.90
23124;DHT22;11731;48.592;8.858;2022-12-07T09:31:03;7.50;99.90
23124;DHT22;11731;48.592;8.858;2022-12-07T09:33:32;7.30;99.90
23124;DHT22;11731;48.592;8.858;2022-12-07T09:35:59;7.10;99.90
23124;DHT22;11731;48.592;8.858;2022-12-07T09:38:26;7.10;99.90
23124;DHT22;11731;48.592;8.858;2022-12-07T09:43:28;6.90;99.90
23124;DHT22;11731;48.592;8.858;2022-12-07T09:45:55;7.20;99.90
23124;DHT22;11731;48.592;8.858;2022-12-07T09:48:25;7.20;99.90
23124;DHT22;11731;48.592;8.858;2022-12-07T09:50:58;7.50;99.90
23124;DHT22;11731;48.592;8.858;2022-12-07T09:53:27;7.40;99.90
23124;DHT22;11731;48.592;8.858;2022-12-07T09:55:55;7.60;99.90
23124;DHT22;11731;48.592;8.858;2022-12-07T09:58:24;7.80;99.90
23124;DHT22;11731;48.592;8.858;2022-12-07T10:00:53;7.70;99.90
23124;DHT22;11731;48.592;8.858;2022-12-07T10:03:22;7.80;99.90
23124;DHT22;11731;48.592;8.858;2022-12-07T10:05:50;7.90;99.90
23124;DHT22;11731;48.592;8.858;2022-12-07T10:08:19;8.00;99.90
23124;DHT22;11731;48.592;8.858;2022-12-07T10:10:52;8.20;99.90
23124;DHT22;11731;48.592;8.858;2022-12-07T10:13:20;8.10;99.90
23124;DHT22;11731;48.592;8.858;2022-12-07T10:15:50;8.00;99.90
23124;DHT22;11731;48.592;8.858;2022-12-07T10:18:27;8.20;99.90
23124;DHT22;11731;48.592;8.858;2022-12-07T10:21:13;8.20;99.90
23124;DHT22;11731;48.592;8.858;2022-12-07T10:23:59;8.10;99.90
23124;DHT22;11731;48.592;8.858;2022-12-07T10:26:30;8.20;99.90
23124;DHT22;11731;48.592;8.858;2022-12-07T10:28:59;8.50;99.90
23124;DHT22;11731;48.592;8.858;2022-12-07T10:31:27;8.70;99.90
23124;DHT22;11731;48.592;8.858;2022-12-07T10:33:56;8.80;99.90
23124;DHT22;11731;48.592;8.858;2022-12-07T10:36:26;8.90;99.90
23124;DHT22;11731;48.592;8.858;2022-12-07T10:39:00;8.90;99.90
23124;DHT22;11731;48.592;8.858;2022-12-07T10:41:28;9.10;99.90
23124;DHT22;11731;48.592;8.858;2022-12-07T10:43:57;9.10;99.80
23124;DHT22;11731;48.592;8.858;2022-12-07T10:46:44;9.10;99.90
23124;DHT22;11731;48.592;8.858;2022-12-07T10:52:21;9.20;99.90
23124;DHT22;11731;48.592;8.858;2022-12-07T10:55:06;9.30;99.90
23124;DHT22;11731;48.592;8.858;2022-12-07T10:57:46;9.40;99.90
23124;DHT22;11731;48.592;8.858;2022-12-07T11:00:18;9.60;99.50
23124;DHT22;11731;48.592;8.858;2022-12-07T11:03:20;9.50;99.20
23124;DHT22;11731;48.592;8.858;2022-12-07T11:05:56;9.50;99.00
23124;DHT22;11731;48.592;8.858;2022-12-07T11:08:39;9.60;99.10
23124;DHT22;11731;48.592;8.858;2022-12-07T11:11:14;9.40;98.90
23124;DHT22;11731;48.592;8.858;2022-12-07T11:13:48;9.20;99.30
23124;DHT22;11731;48.592;8.858;2022-12-07T11:16:23;9.30;99.50
23124;DHT22;11731;48.592;8.858;2022-12-07T11:19:04;9.50;99.40
23124;DHT22;11731;48.592;8.858;2022-12-07T11:21:39;9.80;98.90
23124;DHT22;11731;48.592;8.858;2022-12-07T11:24:14;10.00;97.90
23124;DHT22;11731;48.592;8.858;2022-12-07T11:26:52;9.70;98.30
23124;DHT22;11731;48.592;8.858;2022-12-07T11:29:34;10.00;98.30
23124;DHT22;11731;48.592;8.858;2022-12-07T11:32:11;9.60;98.90
23124;DHT22;11731;48.592;8.858;2022-12-07T11:34:45;9.60;98.90
23124;DHT22;11731;48.592;8.858;2022-12-07T11:37:18;9.80;98.90
23124;DHT22;11731;48.592;8.858;2022-12-07T11:39:50;9.60;98.90
23124;DHT22;11731;48.592;8.858;2022-12-07T11:42:22;9.60;99.20
23124;DHT22;11731;48.592;8.858;2022-12-07T11:44:53;9.60;99.60
23124;DHT22;11731;48.592;8.858;2022-12-07T11:47:27;9.70;99.00
23124;DHT22;11731;48.592;8.858;2022-12-07T11:50:05;9.50;99.50
23124;DHT22;11731;48.592;8.858;2022-12-07T11:52:44;9.70;99.40
23124;DHT22;11731;48.592;8.858;2022-12-07T11:55:19;9.90;99.00
23124;DHT22;11731;48.592;8.858;2022-12-07T11:57:53;9.90;98.40
23124;DHT22;11731;48.592;8.858;2022-12-07T12:00:21;9.90;98.60
23124;DHT22;11731;48.592;8.858;2022-12-07T12:02:52;9.70;98.30
23124;DHT22;11731;48.592;8.858;2022-12-07T12:05:21;10.00;98.30
23124;DHT22;11731;48.592;8.858;2022-12-07T12:07:59;9.50;98.90
23124;DHT22;11731;48.592;8.858;2022-12-07T12:10:37;9.10;99.50
23124;DHT22;11731;48.592;8.858;2022-12-07T12:13:39;9.70;99.20
23124;DHT22;11731;48.592;8.858;2022-12-07T12:16:28;9.90;99.10
23124;DHT22;11731;48.592;8.858;2022-12-07T12:19:11;10.00;98.20
23124;DHT22;11731;48.592;8.858;2022-12-07T12:21:42;9.90;98.30
23124;DHT22;11731;48.592;8.858;2022-12-07T12:24:12;9.70;98.50
23124;DHT22;11731;48.592;8.858;2022-12-07T12:26:49;9.70;98.40
23124;DHT22;11731;48.592;8.858;2022-12-07T12:29:24;9.70;98.90
23124;DHT22;11731;48.592;8.858;2022-12-07T12:32:12;9.80;98.60
23124;DHT22;11731;48.592;8.858;2022-12-07T12:34:58;10.20;97.80
23124;DHT22;11731;48.592;8.858;2022-12-07T12:37:44;10.10;97.10
23124;DHT22;11731;48.592;8.858;2022-12-07T12:43:40;9.90;98.40
23124;DHT22;11731;48.592;8.858;2022-12-07T12:46:48;9.70;98.30
23124;DHT22;11731;48.592;8.858;2022-12-07T12:49:43;9.80;97.70
23124;DHT22;11731;48.592;8.858;2022-12-07T12:55:17;10.10;97.70
23124;DHT22;11731;48.592;8.858;2022-12-07T12:57:47;10.10;97.60
23124;DHT22;11731;48.592;8.858;2022-12-07T13:00:20;10.10;97.70
23124;DHT22;11731;48.592;8.858;2022-12-07T13:02:50;10.00;97.00
23124;DHT22;11731;48.592;8.858;2022-12-07T13:05:19;9.50;98.20
23124;DHT22;11731;48.592;8.858;2022-12-07T13:07:54;8.80;98.80
23124;DHT22;11731;48.592;8.858;2022-12-07T13:10:43;8.10;99.00
23124;DHT22;11731;48.592;8.858;2022-12-07T13:13:44;7.50;99.90
23124;DHT22;11731;48.592;8.858;2022-12-07T13:16:37;7.20;99.90
23124;DHT22;11731;48.592;8.858;2022-12-07T13:22:40;7.10;99.90
23124;DHT22;11731;48.592;8.858;2022-12-07T13:25:11;7.00;99.90
23124;DHT22;11731;48.592;8.858;2022-12-07T13:27:42;6.80;99.90
23124;DHT22;11731;48.592;8.858;2022-12-07T13:30:14;7.10;99.90
23124;DHT22;11731;48.592;8.858;2022-12-07T13:32:42;7.30;99.90
23124;DHT22;11731;48.592;8.858;2022-12-07T13:35:33;7.50;99.90
23124;DHT22;11731;48.592;8.858;2022-12-07T13:38:05;7.20;99.90
23124;DHT22;11731;48.592;8.858;2022-12-07T13:40:32;7.40;99.90
23124;DHT22;11731;48.592;8.858;2022-12-07T13:43:01;7.80;99.90
23124;DHT22;11731;48.592;8.858;2022-12-07T13:45:30;7.90;99.90
23124;DHT22;11731;48.592;8.858;2022-12-07T13:48:22;7.80;99.90
23124;DHT22;11731;48.592;8.858;2022-12-07T13:50:55;7.30;99.90
23124;DHT22;11731;48.592;8.858;2022-12-07T13:53:23;6.80;99.90
23124;DHT22;11731;48.592;8.858;2022-12-07T13:55:53;6.80;99.90
23124;DHT22;11731;48.592;8.858;2022-12-07T13:58:21;6.80;99.90
23124;DHT22;11731;48.592;8.858;2022-12-07T14:00:48;7.00;99.90
23124;DHT22;11731;48.592;8.858;2022-12-07T14:03:33;6.90;99.90
23124;DHT22;11731;48.592;8.858;2022-12-07T14:06:13;6.50;99.90
23124;DHT22;11731;48.592;8.858;2022-12-07T14:08:43;6.50;99.90
23124;DHT22;11731;48.592;8.858;2022-12-07T14:11:14;6.50;99.90
23124;DHT22;11731;48.592;8.858;2022-12-07T14:13:51;6.70;99.90
23124;DHT22;11731;48.592;8.858;2022-12-07T14:16:24;6.60;99.90
23124;DHT22;11731;48.592;8.858;2022-12-07T14:18:53;6.80;99.90
23124;DHT22;11731;48.592;8.858;2022-12-07T14:21:22;6.80;99.90
23124;DHT22;11731;48.592;8.858;2022-12-07T14:24:12;6.80;99.90
23124;DHT22;11731;48.592;8.858;2022-12-07T14:26:44;7.10;99.90
23124;DHT22;11731;48.592;8.858;2022-12-07T14:29:32;7.00;99.90
23124;DHT22;11731;48.592;8.858;2022-12-07T14:32:18;7.10;99.90
23124;DHT22;11731;48.592;8.858;2022-12-07T14:35:02;7.10;99.90
23124;DHT22;11731;48.592;8.858;2022-12-07T14:37:36;7.00;99.90
23124;DHT22;11731;48.592;8.858;2022-12-07T14:40:06;7.00;99.90
23124;DHT22;11731;48.592;8.858;2022-12-07T14:42:34;6.80;99.90
23124;DHT22;11731;48.592;8.858;2022-12-07T14:45:01;6.70;99.90
23124;DHT22;11731;48.592;8.858;2022-12-07T14:47:28;6.90;99.90
23124;DHT22;11731;48.592;8.858;2022-12-07T14:49:55;6.90;99.90
23124;DHT22;11731;48.592;8.858;2022-12-07T14:52:25;7.10;99.90
23124;DHT22;11731;48.592;8.858;2022-12-07T14:54:53;6.70;99.90
23124;DHT22;11731;48.592;8.858;2022-12-07T14:57:22;6.50;99.90
23124;DHT22;11731;48.592;8.858;2022-12-07T14:59:49;6.50;99.90
23124;DHT22;11731;48.592;8.858;2022-12-07T15:02:16;6.30;99.90
23124;DHT22;11731;48.592;8.858;2022-12-07T15:04:43;6.20;99.90
23124;DHT22;11731;48.592;8.858;2022-12-07T15:07:15;6.20;99.90
23124;DHT22;11731;48.592;8.858;2022-12-07T15:09:43;6.30;99.90
23124;DHT22;11731;48.592;8.858;2022-12-07T15:12:12;6.40;99.90
23124;DHT22;11731;48.592;8.858;2022-12-07T15:14:40;6.40;99.90
23124;DHT22;11731;48.592;8.858;2022-12-07T15:17:10;6.40;99.90
23124;DHT22;11731;48.592;8.858;2022-12-07T15:19:37;6.50;99.90
23124;DHT22;11731;48.592;8.858;2022-12-07T15:22:04;6.60;99.90
23124;DHT22;11731;48.592;8.858;2022-12-07T15:24:31;6.70;99.90
23124;DHT22;11731;48.592;8.858;2022-12-07T15:26:58;6.80;99.90
23124;DHT22;11731;48.592;8.858;2022-12-07T15:29:25;6.60;99.90
23124;DHT22;11731;48.592;8.858;2022-12-07T15:31:55;6.50;99.90
23124;DHT22;11731;48.592;8.858;2022-12-07T15:34:23;6.50;99.90
23124;DHT22;11731;48.592;8.858;2022-12-07T15:36:50;6.50;99.90
23124;DHT22;11731;48.592;8.858;2022-12-07T15:39:17;6.40;99.90
23124;DHT22;11731;48.592;8.858;2022-12-07T15:41:44;6.30;99.90
23124;DHT22;11731;48.592;8.858;2022-12-07T15:44:12;6.40;99.90
23124;DHT22;11731;48.592;8.858;2022-12-07T15:46:58;6.20;99.90
23124;DHT22;11731;48.592;8.858;2022-12-07T15:49:25;6.00;99.90
23124;DHT22;11731;48.592;8.858;2022-12-07T15:51:53;5.90;99.90
23124;DHT22;11731;48.592;8.858;2022-12-07T15:54:21;6.00;99.90
23124;DHT22;11731;48.592;8.858;2022-12-07T15:56:48;6.10;99.90
23124;DHT22;11731;48.592;8.858;2022-12-07T15:59:16;6.20;99.90
23124;DHT22;11731;48.592;8.858;2022-12-07T16:01:43;6.30;99.90
23124;DHT22;11731;48.592;8.858;2022-12-07T16:04:11;6.80;99.90
23124;DHT22;11731;48.592;8.858;2022-12-07T16:06:38;6.70;99.90
23124;DHT22;11731;48.592;8.858;2022-12-07T16:09:05;6.90;99.90
23124;DHT22;11731;48.592;8.858;2022-12-07T16:11:33;6.30;99.90
23124;DHT22;11731;48.592;8.858;2022-12-07T16:14:00;5.70;99.90
23124;DHT22;11731;48.592;8.858;2022-12-07T16:16:27;5.50;99.90
23124;DHT22;11731;48.592;8.858;2022-12-07T16:18:54;5.30;99.90
23124;DHT22;11731;48.592;8.858;2022-12-07T16:21:22;5.10;99.90
23124;DHT22;11731;48.592;8.858;2022-12-07T16:23:49;4.80;99.90
23124;DHT22;11731;48.592;8.858;2022-12-07T16:26:18;4.80;99.90
23124;DHT22;11731;48.592;8.858;2022-12-07T16:28:48;4.90;99.90
23124;DHT22;11731;48.592;8.858;2022-12-07T16:31:18;5.30;99.90
23124;DHT22;11731;48.592;8.858;2022-12-07T16:33:46;5.60;99.90
23124;DHT22;11731;48.592;8.858;2022-12-07T16:36:13;5.70;99.90